Time;durP1;ratioP1;P1;durP2;ratioP2;P2;SDS_P1;SDS_P2;PMS_P1;PMS_P2;Temp;Humidity;BMP_temperature;BMP_pressure;BME280_temperature;BME280_humidity;BME280_pressure;Samples;Min_cycle;Max_cycle;Signal;HPM_P1;HPM_P2
2024/02/15 00:00:58;;;;;;;42.83;17.07;;;;;;;10.39;100.00;100971.00;5007364;28;20022;-78
2024/02/15 00:03:23;;;;;;;52.30;18.05;;;;;;;10.47;100.00;100983.56;5007742;28;20465;-78
2024/02/15 00:05:48;;;;;;;37.27;16.37;;;;;;;10.51;100.00;100985.78;5007004;28;20124;-77
2024/02/15 00:08:15;;;;;;;44.07;18.40;;;;;;;10.59;100.00;100994.84;5004270;28;20083;-79
2024/02/15 00:10:40;;;;;;;;;;;;;;;10.35;100.00;100991.84;4994762;28;20030;-79
2024/02/15 00:13:06;;;;;;;46.60;19.20;;;;;;;10.43;100.00;100999.06;5017994;28;20016;-79
2024/02/15 00:15:31;;;;;;;46.40;17.88;;;;;;;10.47;100.00;101003.09;5008048;28;20033;-79
2024/02/15 00:17:57;;;;;;;54.28;20.65;;;;;;;10.46;100.00;101001.41;5010968;28;20034;-78
2024/02/15 00:20:22;;;;;;;53.90;18.83;;;;;;;10.51;100.00;101000.94;5002448;28;20369;-78
2024/02/15 00:22:48;;;;;;;57.00;19.80;;;;;;;10.47;100.00;100991.59;5009569;28;20037;-78
2024/02/15 00:25:13;;;;;;;50.67;19.67;;;;;;;10.53;100.00;100997.13;5011416;28;20108;-78
2024/02/15 00:27:39;;;;;;;58.08;18.13;;;;;;;10.46;100.00;100985.38;5020001;28;20096;-79
2024/02/15 00:30:07;;;;;;;48.15;17.17;;;;;;;10.53;100.00;100985.59;4991249;28;20022;-79
2024/02/15 00:32:33;;;;;;;45.33;17.45;;;;;;;10.49;100.00;100981.59;5009380;28;20044;-78
2024/02/15 00:34:58;;;;;;;36.42;15.13;;;;;;;10.47;100.00;100980.91;5007107;28;20489;-79
2024/02/15 00:37:24;;;;;;;45.57;16.73;;;;;;;10.42;100.00;100970.69;4998097;28;20044;-77
2024/02/15 00:39:49;;;;;;;45.93;16.77;;;;;;;10.45;100.00;100980.22;5019160;28;20292;-78
2024/02/15 00:42:15;;;;;;;47.57;16.70;;;;;;;10.51;100.00;100975.09;5007526;28;20040;-78
2024/02/15 00:44:41;;;;;;;49.75;17.48;;;;;;;10.59;100.00;100976.16;5013329;28;20798;-78
2024/02/15 00:47:07;;;;;;;38.28;16.98;;;;;;;10.50;100.00;100972.56;5006540;28;20132;-78
2024/02/15 00:49:33;;;;;;;47.60;17.48;;;;;;;10.60;100.00;100969.81;5007038;28;20023;-78
2024/02/15 00:51:59;;;;;;;50.50;15.68;;;;;;;10.47;100.00;100971.06;5015358;28;20397;-79
2024/02/15 00:54:24;;;;;;;43.17;15.60;;;;;;;10.53;100.00;100972.25;5007229;28;20084;-79
2024/02/15 00:56:51;;;;;;;35.10;13.60;;;;;;;10.45;100.00;100975.72;5008058;28;20048;-79
2024/02/15 00:59:16;;;;;;;41.58;16.40;;;;;;;10.46;100.00;100977.38;5008999;28;20025;-78
2024/02/15 01:01:42;;;;;;;38.22;14.75;;;;;;;10.36;100.00;100976.66;4991265;28;20382;-78
2024/02/15 01:04:07;;;;;;;45.37;14.33;;;;;;;10.32;100.00;100980.63;5015583;28;20093;-79
2024/02/15 01:06:33;;;;;;;50.90;15.00;;;;;;;10.39;100.00;100980.84;5006111;28;20525;-78
2024/02/15 01:09:01;;;;;;;36.53;13.60;;;;;;;10.27;100.00;100974.88;4993019;28;20038;-78
2024/02/15 01:11:28;;;;;;;38.65;13.90;;;;;;;10.33;100.00;100988.47;5001704;28;20025;-79
2024/02/15 01:13:54;;;;;;;41.17;15.50;;;;;;;10.37;100.00;100980.97;4992227;28;20045;-79
2024/02/15 01:16:21;;;;;;;32.65;12.68;;;;;;;10.36;100.00;100992.66;5006795;28;20079;-79
2024/02/15 01:18:47;;;;;;;40.28;15.00;;;;;;;10.24;100.00;100993.88;4996266;28;20092;-79
2024/02/15 01:21:12;;;;;;;37.88;15.80;;;;;;;10.36;100.00;100992.66;5021643;28;20029;-79
2024/02/15 01:23:37;;;;;;;36.70;15.10;;;;;;;10.26;100.00;100994.56;5002905;28;20087;-78
2024/02/15 01:26:03;;;;;;;40.30;16.03;;;;;;;10.46;100.00;100997.91;5012554;28;20074;-79
2024/02/15 01:28:28;;;;;;;37.03;14.27;;;;;;;10.54;100.00;101006.81;5003047;28;20360;-79
2024/02/15 01:30:54;;;;;;;39.10;15.60;;;;;;;10.30;100.00;100993.28;5003325;28;20292;-79
2024/02/15 01:33:20;;;;;;;45.78;14.48;;;;;;;10.25;100.00;100995.53;4995448;28;20412;-79
2024/02/15 01:35:45;;;;;;;38.05;13.57;;;;;;;10.32;100.00;100992.16;5013117;28;20042;-79
2024/02/15 01:38:10;;;;;;;43.90;15.17;;;;;;;10.40;100.00;100990.53;5011680;28;20041;-78
2024/02/15 01:40:36;;;;;;;36.90;13.83;;;;;;;10.49;100.00;100998.44;5010972;28;20029;-79
2024/02/15 01:43:01;;;;;;;37.37;12.90;;;;;;;10.52;100.00;100998.13;5011228;28;20485;-79
2024/02/15 01:45:28;;;;;;;37.28;13.10;;;;;;;10.41;100.00;100993.03;5019687;28;20026;-79
2024/02/15 01:47:54;;;;;;;38.72;12.35;;;;;;;10.27;100.00;100982.88;4994949;28;20053;-79
2024/02/15 01:50:21;;;;;;;42.78;13.00;;;;;;;10.42;100.00;100997.38;5010984;28;20075;-79
2024/02/15 01:52:49;;;;;;;38.10;13.10;;;;;;;10.34;100.00;100984.81;5010683;28;20042;-78
2024/02/15 01:55:16;;;;;;;45.53;15.02;;;;;;;10.49;100.00;100989.59;4997147;28;20120;-78
2024/02/15 01:57:45;;;;;;;39.92;13.52;;;;;;;10.30;100.00;100980.78;4991420;28;20041;-78
2024/02/15 02:00:12;;;;;;;34.00;12.50;;;;;;;10.32;100.00;100996.63;5014488;28;20404;-78
2024/02/15 02:02:41;;;;;;;34.17;11.35;;;;;;;10.33;100.00;100987.66;5010525;28;20073;-79
2024/02/15 02:05:07;;;;;;;32.58;11.55;;;;;;;10.32;100.00;100991.28;5015954;28;20048;-79
2024/02/15 02:07:33;;;;;;;34.05;10.52;;;;;;;10.47;100.00;100983.56;4998264;28;20493;-79
2024/02/15 02:09:58;;;;;;;33.00;12.43;;;;;;;10.53;100.00;100982.94;5011325;28;20033;-79
2024/02/15 02:12:27;;;;;;;35.47;12.10;;;;;;;10.44;100.00;100976.72;5011401;28;20371;-79
2024/02/15 02:14:56;;;;;;;29.55;11.48;;;;;;;10.50;100.00;100984.09;5007526;28;20030;-79
2024/02/15 02:17:21;;;;;;;31.38;12.02;;;;;;;10.56;100.00;100982.66;4994643;28;20052;-79
2024/02/15 02:19:49;;;;;;;29.43;10.70;;;;;;;10.61;100.00;100977.66;4998356;28;20022;-79
2024/02/15 02:22:16;;;;;;;34.83;12.77;;;;;;;10.49;100.00;100976.25;5011724;28;20481;-79
2024/02/15 02:25:07;;;;;;;29.90;10.57;;;;;;;10.56;100.00;100985.31;5012357;28;20060;-79
2024/02/15 02:27:34;;;;;;;33.53;10.63;;;;;;;10.59;100.00;100973.47;5002632;28;20038;-79
2024/02/15 02:30:00;;;;;;;34.10;12.15;;;;;;;10.62;100.00;100976.66;5008493;28;20665;-79
2024/02/15 02:32:28;;;;;;;31.58;12.32;;;;;;;10.63;100.00;100973.00;4986949;28;20151;-79
2024/02/15 02:34:57;;;;;;;38.17;12.10;;;;;;;10.69;100.00;100975.03;5009833;28;20030;-79
2024/02/15 02:37:26;;;;;;;24.88;9.35;;;;;;;10.64;100.00;100980.00;4998262;28;20045;-79
2024/02/15 02:39:52;;;;;;;23.00;9.75;;;;;;;10.68;100.00;100981.38;5008252;28;20042;-78
2024/02/15 02:42:17;;;;;;;25.55;10.05;;;;;;;10.70;100.00;100967.84;4998387;28;20031;-79
2024/02/15 02:44:43;;;;;;;26.15;9.73;;;;;;;10.76;100.00;100977.91;5009177;28;20034;-79
2024/02/15 02:47:08;;;;;;;24.98;10.60;;;;;;;10.67;100.00;100976.19;5015798;28;20037;-78
2024/02/15 02:49:37;;;;;;;25.87;9.50;;;;;;;10.67;100.00;100978.84;5013474;28;20033;-78
2024/02/15 02:52:03;;;;;;;25.38;10.85;;;;;;;10.71;100.00;100986.41;5015350;28;20655;-79
2024/02/15 02:54:29;;;;;;;;;;;;;;;10.69;100.00;100982.22;5013143;28;20034;-78
2024/02/15 02:56:54;;;;;;;20.85;10.63;;;;;;;10.70;100.00;100983.88;5019994;28;19909;-78
2024/02/15 02:59:20;;;;;;;17.75;7.72;;;;;;;10.58;100.00;100975.28;4996306;28;20496;-78
2024/02/15 03:01:45;;;;;;;21.08;9.30;;;;;;;10.61;100.00;100976.84;5012412;28;20091;-77
2024/02/15 03:04:12;;;;;;;24.10;9.37;;;;;;;10.49;100.00;100977.09;4997336;28;20042;-78
2024/02/15 03:06:37;;;;;;;22.08;9.43;;;;;;;10.47;100.00;100979.06;5006373;28;20089;-78
2024/02/15 03:09:06;;;;;;;23.77;9.90;;;;;;;10.63;100.00;100980.16;5006902;28;20023;-78
2024/02/15 03:11:33;;;;;;;24.00;11.13;;;;;;;10.61;100.00;100977.66;4994047;28;20030;-78
2024/02/15 03:13:59;;;;;;;28.63;10.43;;;;;;;10.68;100.00;100976.03;4998305;28;20022;-78
2024/02/15 03:16:25;;;;;;;33.50;12.35;;;;;;;10.68;100.00;100977.88;5001721;28;20117;-77
2024/02/15 03:18:52;;;;;;;25.48;11.30;;;;;;;10.69;100.00;100971.53;5004601;28;20125;-78
2024/02/15 03:21:18;;;;;;;26.27;10.90;;;;;;;10.75;100.00;100971.75;4998535;28;20494;-78
2024/02/15 03:23:44;;;;;;;31.00;10.52;;;;;;;10.56;100.00;100959.44;4994286;28;20408;-79
2024/02/15 03:26:09;;;;;;;25.83;9.60;;;;;;;10.64;100.00;100963.16;5005886;28;20033;-78
2024/02/15 03:28:37;;;;;;;23.60;9.05;;;;;;;10.53;100.00;100969.59;5018674;28;20847;-78
2024/02/15 03:31:03;;;;;;;24.27;10.20;;;;;;;10.63;100.00;100974.81;4996661;28;20033;-78
2024/02/15 03:33:33;;;;;;;17.60;8.38;;;;;;;10.62;100.00;100979.31;4994444;28;20447;-78
2024/02/15 03:36:02;;;;;;;22.77;8.60;;;;;;;10.62;100.00;100975.81;5009691;28;20030;-77
2024/02/15 03:38:29;;;;;;;17.95;7.70;;;;;;;10.76;100.00;100988.59;5007181;28;20029;-78
2024/02/15 03:40:57;;;;;;;;;;;;;;;10.67;100.00;100978.84;5011864;28;20660;-78
2024/02/15 03:43:23;;;;;;;20.85;9.43;;;;;;;10.61;100.00;100977.66;5010862;28;19913;-79
2024/02/15 03:45:49;;;;;;;21.00;8.73;;;;;;;10.61;100.00;100984.84;5019664;28;20021;-78
2024/02/15 03:48:15;;;;;;;18.45;7.47;;;;;;;10.67;100.00;100987.69;4996860;28;20038;-79
2024/02/15 03:50:40;;;;;;;20.98;7.97;;;;;;;10.55;100.00;100989.78;5011148;28;20037;-78
2024/02/15 03:53:06;;;;;;;14.83;7.40;;;;;;;10.74;100.00;100998.59;5018615;28;20025;-78
2024/02/15 03:55:33;;;;;;;13.20;6.50;;;;;;;10.67;100.00;100985.03;5010833;28;20116;-78
2024/02/15 03:57:58;;;;;;;21.02;8.10;;;;;;;10.65;100.00;100991.53;5018982;28;20025;-78
2024/02/15 04:00:24;;;;;;;22.25;8.60;;;;;;;10.81;100.00;101002.31;4994642;28;20041;-78
2024/02/15 04:02:50;;;;;;;19.45;7.95;;;;;;;10.82;100.00;100996.00;5003038;28;20052;-78
2024/02/15 04:05:18;;;;;;;19.23;8.02;;;;;;;10.90;100.00;100992.53;5020899;28;20488;-79
2024/02/15 04:07:44;;;;;;;22.45;8.38;;;;;;;10.89;100.00;100989.00;5016041;28;20092;-79
2024/02/15 04:10:10;;;;;;;18.70;7.45;;;;;;;10.86;100.00;100997.31;4995730;28;20034;-78
2024/02/15 04:12:36;;;;;;;;;;;;;;;10.81;100.00;100991.63;4994396;28;20033;-79
2024/02/15 04:15:11;;;;;;;16.13;7.60;;;;;;;10.83;100.00;100994.16;4997257;28;19920;-79
2024/02/15 04:17:40;;;;;;;27.13;10.13;;;;;;;10.83;100.00;100992.31;4978684;28;20088;-79
2024/02/15 04:20:07;;;;;;;20.73;8.95;;;;;;;10.85;100.00;100998.34;5011171;28;20938;-79
2024/02/15 04:22:36;;;;;;;21.33;9.68;;;;;;;10.85;100.00;100994.84;4975928;28;20042;-79
2024/02/15 04:25:06;;;;;;;24.85;9.05;;;;;;;10.84;100.00;100996.66;5001652;28;20038;-79
2024/02/15 04:27:31;;;;;;;21.10;8.77;;;;;;;10.87;100.00;100996.34;4976387;28;20052;-79
2024/02/15 04:29:57;;;;;;;17.30;8.25;;;;;;;10.95;100.00;100996.38;5003430;28;20038;-79
2024/02/15 04:32:22;;;;;;;20.58;8.43;;;;;;;10.85;100.00;100987.66;5017776;28;20030;-79
2024/02/15 04:34:48;;;;;;;19.50;8.70;;;;;;;10.80;100.00;100984.63;5011295;28;20033;-79
2024/02/15 04:37:14;;;;;;;21.67;9.32;;;;;;;10.87;100.00;100990.16;4990589;28;20129;-79
2024/02/15 04:39:39;;;;;;;21.80;9.50;;;;;;;10.90;100.00;100990.69;4999956;28;20034;-78
2024/02/15 04:42:07;;;;;;;21.58;9.15;;;;;;;10.88;100.00;101000.69;4994064;28;20350;-78
2024/02/15 04:44:35;;;;;;;25.27;9.13;;;;;;;10.85;100.00;100990.31;5007256;28;20037;-79
2024/02/15 04:47:03;;;;;;;26.20;9.07;;;;;;;10.87;100.00;100996.34;5002856;28;20077;-79
2024/02/15 04:49:29;;;;;;;24.35;8.50;;;;;;;10.81;100.00;100994.28;4988157;28;20042;-79
2024/02/15 04:51:55;;;;;;;20.87;9.67;;;;;;;10.89;100.00;100997.03;4994930;28;20030;-79
2024/02/15 04:54:20;;;;;;;31.00;8.82;;;;;;;10.81;100.00;100985.44;5006126;28;21016;-79
2024/02/15 04:56:45;;;;;;;28.77;10.20;;;;;;;10.79;100.00;100998.94;4989350;28;20398;-80
2024/02/15 04:59:15;;;;;;;22.52;8.75;;;;;;;10.81;100.00;100996.97;5002435;28;20072;-79
2024/02/15 05:01:42;;;;;;;18.63;7.28;;;;;;;10.78;100.00;100997.28;4982173;28;20064;-79
2024/02/15 05:04:11;;;;;;;22.60;9.43;;;;;;;10.88;100.00;101002.53;4984234;28;20087;-78
2024/02/15 05:06:37;;;;;;;17.05;8.65;;;;;;;10.86;100.00;101010.69;4993785;28;20019;-79
2024/02/15 05:09:12;;;;;;;27.38;9.55;;;;;;;10.97;100.00;101004.25;4990446;28;20129;-79
2024/02/15 05:11:43;;;;;;;23.80;8.70;;;;;;;10.85;100.00;101000.19;4994074;28;20073;-79
2024/02/15 05:14:10;;;;;;;21.58;7.85;;;;;;;10.79;100.00;101006.97;5004481;28;20469;-79
2024/02/15 05:16:42;;;;;;;23.55;7.88;;;;;;;10.65;100.00;101003.06;4994746;28;20057;-79
2024/02/15 05:19:10;;;;;;;26.40;9.48;;;;;;;10.80;100.00;101018.50;5007153;28;20042;-79
2024/02/15 05:21:37;;;;;;;25.70;9.38;;;;;;;10.89;100.00;101015.72;4996511;28;20026;-79
2024/02/15 05:24:03;;;;;;;22.90;8.82;;;;;;;10.87;100.00;101012.38;4994250;28;20517;-78
2024/02/15 05:26:29;;;;;;;23.02;8.35;;;;;;;10.87;100.00;101007.03;4998294;28;20050;-79
2024/02/15 05:28:54;;;;;;;20.17;8.10;;;;;;;10.66;100.00;101003.91;5004046;28;20069;-79
2024/02/15 05:31:21;;;;;;;17.70;7.60;;;;;;;10.76;100.00;101020.66;5017328;28;20141;-79
2024/02/15 05:33:47;;;;;;;15.93;7.13;;;;;;;10.82;100.00;101013.84;5001988;28;20065;-78
2024/02/15 05:36:14;;;;;;;16.67;8.38;;;;;;;10.87;100.00;101022.22;4997367;28;20025;-79
2024/02/15 05:38:40;;;;;;;24.45;9.10;;;;;;;10.73;100.00;101020.97;5020211;28;20029;-79
2024/02/15 05:41:07;;;;;;;19.38;7.85;;;;;;;10.79;100.00;101014.97;5009246;28;20021;-78
2024/02/15 05:43:36;;;;;;;22.83;9.57;;;;;;;10.80;100.00;101010.50;4979951;28;20044;-79
2024/02/15 05:46:03;;;;;;;28.35;9.75;;;;;;;10.77;100.00;101007.13;5003627;28;20022;-78
2024/02/15 05:48:28;;;;;;;21.45;9.38;;;;;;;10.76;100.00;101004.63;4990784;28;20032;-79
2024/02/15 05:50:55;;;;;;;27.37;8.73;;;;;;;10.73;100.00;101010.28;4981491;28;20065;-79
2024/02/15 05:53:20;;;;;;;28.20;10.85;;;;;;;10.86;100.00;101009.84;5006064;28;20062;-78
2024/02/15 05:55:46;;;;;;;30.80;12.13;;;;;;;10.84;100.00;101004.69;4999873;28;20489;-78
2024/02/15 05:58:13;;;;;;;30.87;10.37;;;;;;;10.76;100.00;101004.63;4995148;28;20034;-79
2024/02/15 06:00:39;;;;;;;41.95;12.43;;;;;;;10.81;100.00;101013.00;4983792;28;20077;-78
2024/02/15 06:03:06;;;;;;;30.27;11.98;;;;;;;10.72;100.00;101006.78;4990107;28;20028;-78
2024/02/15 06:05:32;;;;;;;40.00;13.57;;;;;;;10.73;100.00;101008.44;4976594;28;20034;-78
2024/02/15 06:07:58;;;;;;;51.60;15.43;;;;;;;10.68;100.00;101009.91;5001305;28;20404;-78
2024/02/15 06:10:24;;;;;;;;;;;;;;;10.50;100.00;101016.13;5000347;28;20057;-78
2024/02/15 06:12:50;;;;;;;55.20;17.48;;;;;;;10.54;100.00;101017.50;4996006;28;19925;-78
2024/02/15 06:15:15;;;;;;;67.90;18.07;;;;;;;10.61;100.00;101014.22;4994179;28;20384;-78
2024/02/15 06:17:43;;;;;;;63.23;17.87;;;;;;;10.58;100.00;101012.66;4992850;28;20037;-78
2024/02/15 06:20:11;;;;;;;51.80;17.60;;;;;;;10.52;100.00;101007.97;5002287;28;20269;-78
2024/02/15 06:22:38;;;;;;;60.55;18.95;;;;;;;10.62;100.00;101023.88;5022877;28;20065;-77
2024/02/15 06:25:03;;;;;;;;;;;;;;;10.60;100.00;101020.53;5011136;28;20060;-78
2024/02/15 06:27:28;;;;;;;55.25;18.23;;;;;;;10.70;100.00;101019.44;5020930;28;20376;-78
2024/02/15 06:40:50;;;;;;;48.33;16.85;;;;;;;10.75;100.00;101033.16;5009800;28;20075;-78
2024/02/15 06:43:16;;;;;;;76.47;22.07;;;;;;;10.66;100.00;101023.41;5012761;28;20097;-78
2024/02/15 06:45:46;;;;;;;65.57;19.25;;;;;;;10.70;100.00;101031.94;5015365;28;20829;-77
2024/02/15 06:48:12;;;;;;;65.50;21.10;;;;;;;10.79;100.00;101031.00;4992884;28;20038;-78
2024/02/15 06:50:37;;;;;;;65.63;19.73;;;;;;;10.79;100.00;101033.66;4993315;28;20029;-78
2024/02/15 06:53:03;;;;;;;71.68;21.40;;;;;;;10.86;100.00;101034.72;4994392;28;20034;-78
2024/02/15 06:55:28;;;;;;;60.10;20.48;;;;;;;10.72;100.00;101036.16;5004881;28;20027;-78
2024/02/15 06:57:55;;;;;;;59.73;19.23;;;;;;;10.76;100.00;101042.84;4985011;28;20026;-78
2024/02/15 07:00:20;;;;;;;;;;;;;;;10.87;100.00;101043.59;5009525;28;20045;-78
2024/02/15 07:02:45;;;;;;;92.47;23.13;;;;;;;10.84;100.00;101041.22;5000580;28;19918;-78
2024/02/15 07:05:11;;;;;;;65.83;20.47;;;;;;;10.88;100.00;101030.06;5000851;28;20074;-78
2024/02/15 07:07:38;;;;;;;64.53;19.48;;;;;;;10.88;100.00;101040.75;4978328;28;20053;-78
2024/02/15 07:10:05;;;;;;;74.50;22.85;;;;;;;10.82;100.00;101045.91;4997730;28;20036;-77
2024/02/15 07:12:32;;;;;;;63.92;20.30;;;;;;;10.87;100.00;101049.75;5008670;28;20037;-78
2024/02/15 07:14:57;;;;;;;68.47;21.08;;;;;;;10.72;100.00;101036.16;5015434;28;20080;-77
2024/02/15 07:17:23;;;;;;;66.38;22.70;;;;;;;10.91;100.00;101050.28;5000173;28;20014;-78
2024/02/15 07:19:51;;;;;;;59.35;18.83;;;;;;;10.80;100.00;101038.03;5006654;28;20499;-78
2024/02/15 07:22:16;;;;;;;61.20;20.15;;;;;;;10.87;100.00;101044.44;5027036;28;20021;-78
2024/02/15 07:24:42;;;;;;;56.10;19.63;;;;;;;10.96;100.00;101046.16;5018838;28;20374;-77
2024/02/15 07:27:07;;;;;;;53.80;19.15;;;;;;;11.05;100.00;101046.19;5010334;28;20041;-78
2024/02/15 07:29:34;;;;;;;55.00;20.00;;;;;;;10.86;100.00;101037.38;4999228;28;20021;-77
2024/02/15 07:32:04;;;;;;;63.10;18.63;;;;;;;11.09;100.00;101047.56;4996970;28;20089;-78
2024/02/15 07:34:30;;;;;;;55.28;19.23;;;;;;;11.09;100.00;101043.03;5010553;28;20030;-78
2024/02/15 07:36:55;;;;;;;;;;;;;;;11.11;100.00;101045.56;5027450;28;20024;-77
2024/02/15 07:39:24;;;;;;;58.05;19.70;;;;;;;11.14;100.00;101043.44;5002455;28;19913;-78
2024/02/15 07:41:51;;;;;;;50.47;16.83;;;;;;;11.07;100.00;101045.03;5003104;28;20214;-78
2024/02/15 07:44:17;;;;;;;47.95;17.20;;;;;;;11.15;100.00;101046.94;5008240;28;20045;-78
2024/02/15 07:46:43;;;;;;;47.03;15.25;;;;;;;11.17;100.00;101047.63;5007157;28;20030;-78
2024/02/15 07:49:09;;;;;;;58.67;17.08;;;;;;;11.15;100.00;101047.75;5008716;28;20073;-78
2024/02/15 07:51:34;;;;;;;40.15;14.93;;;;;;;11.08;100.00;101051.25;5021505;28;20061;-78
2024/02/15 07:54:01;;;;;;;42.33;16.83;;;;;;;11.16;100.00;101048.59;5007055;28;20372;-78
2024/02/15 07:56:26;;;;;;;40.60;16.27;;;;;;;11.11;100.00;101053.59;5019009;28;20041;-77
2024/02/15 07:58:52;;;;;;;41.20;16.98;;;;;;;11.18;100.00;101051.94;5010570;28;20037;-78
2024/02/15 08:01:21;;;;;;;37.30;15.57;;;;;;;11.19;100.00;101050.94;5025846;28;20053;-78
2024/02/15 08:03:47;;;;;;;39.05;14.75;;;;;;;11.10;100.00;101059.94;5010058;28;20042;-77
2024/02/15 08:06:12;;;;;;;49.53;16.53;;;;;;;11.13;100.00;101062.28;5008216;28;20022;-78
2024/02/15 08:08:44;;;;;;;45.90;16.17;;;;;;;11.23;100.00;101065.66;5008053;28;20320;-78
2024/02/15 08:11:14;;;;;;;41.85;16.05;;;;;;;10.99;100.00;101056.50;4992552;28;20695;-78
2024/02/15 08:13:51;;;;;;;43.88;16.25;;;;;;;11.13;100.00;101059.59;5009624;28;20036;-77
2024/02/15 08:16:18;;;;;;;44.20;15.65;;;;;;;11.22;100.00;101064.00;5010797;28;20042;-78
2024/02/15 08:18:44;;;;;;;41.85;16.05;;;;;;;11.12;100.00;101058.78;5027048;28;20072;-78
2024/02/15 08:21:10;;;;;;;40.17;14.70;;;;;;;11.22;100.00;101060.50;5008467;28;20071;-78
2024/02/15 08:23:36;;;;;;;39.85;14.68;;;;;;;11.20;100.00;101064.16;4991094;28;20088;-78
2024/02/15 08:26:01;;;;;;;47.40;15.35;;;;;;;11.13;100.00;101054.25;5007212;28;20126;-77
2024/02/15 08:28:28;;;;;;;40.92;15.55;;;;;;;11.26;100.00;101060.03;5009070;28;20141;-78
2024/02/15 08:30:55;;;;;;;40.00;15.60;;;;;;;11.25;100.00;101058.34;4999517;28;20049;-78
2024/02/15 08:33:21;;;;;;;40.17;16.55;;;;;;;11.30;100.00;101061.34;5001284;28;20037;-77
2024/02/15 08:35:46;;;;;;;37.83;14.23;;;;;;;11.15;100.00;101041.59;5024648;28;20038;-77
2024/02/15 08:38:11;;;;;;;31.47;12.73;;;;;;;11.35;100.00;101059.03;5015543;28;20041;-77
2024/02/15 08:40:37;;;;;;;34.27;14.60;;;;;;;11.32;100.00;101053.19;4986162;28;20164;-76
2024/02/15 08:43:02;;;;;;;29.37;13.90;;;;;;;11.47;100.00;101050.75;5004623;28;20406;-76
2024/02/15 08:45:28;;;;;;;43.45;17.13;;;;;;;11.25;100.00;101058.34;5000572;28;20058;-77
2024/02/15 08:47:53;;;;;;;40.90;16.35;;;;;;;11.41;100.00;101050.38;5024852;28;20406;-77
2024/02/15 08:50:19;;;;;;;39.30;16.30;;;;;;;11.37;100.00;101054.38;5008340;28;20048;-77
2024/02/15 08:52:46;;;;;;;46.03;17.67;;;;;;;11.37;100.00;101062.41;5025928;28;20046;-77
2024/02/15 08:55:15;;;;;;;42.75;15.13;;;;;;;11.19;100.00;101059.81;5025550;28;20029;-76
2024/02/15 08:57:41;;;;;;;45.15;17.60;;;;;;;11.23;100.00;101067.50;5025488;28;20041;-76
2024/02/15 09:00:13;;;;;;;46.42;16.35;;;;;;;11.40;100.00;101058.56;5007685;28;20029;-77
2024/02/15 09:02:40;;;;;;;46.20;19.27;;;;;;;11.40;100.00;101059.41;5024685;28;20029;-77
2024/02/15 09:05:06;;;;;;;47.28;17.52;;;;;;;11.40;100.00;101059.41;5025983;28;20103;-76
2024/02/15 09:07:31;;;;;;;46.60;18.23;;;;;;;11.23;100.00;101052.31;5025152;28;20047;-77
2024/02/15 09:09:57;;;;;;;49.63;18.00;;;;;;;11.24;100.00;101054.00;5008303;28;20037;-77
2024/02/15 09:12:22;;;;;;;56.97;19.33;;;;;;;11.25;100.00;101052.16;5025165;28;20068;-76
2024/02/15 09:14:47;;;;;;;55.30;20.50;;;;;;;11.32;100.00;101059.38;5008170;28;20041;-77
2024/02/15 09:17:13;;;;;;;54.10;19.47;;;;;;;11.25;100.00;101058.34;5016684;28;20034;-77
2024/02/15 09:19:39;;;;;;;44.58;20.15;;;;;;;11.48;100.00;101069.31;5019991;28;20296;-77
2024/02/15 09:22:04;;;;;;;50.07;18.83;;;;;;;11.41;100.00;101058.41;5021748;28;20080;-77
2024/02/15 09:24:30;;;;;;;46.70;19.17;;;;;;;11.39;100.00;101071.09;5023921;28;20098;-77
2024/02/15 09:26:56;;;;;;;46.60;18.30;;;;;;;11.44;100.00;101059.09;5025211;28;20279;-75
2024/02/15 09:29:21;;;;;;;53.40;20.37;;;;;;;11.28;100.00;101060.69;5025939;28;20025;-77
2024/02/15 09:31:50;;;;;;;61.00;21.58;;;;;;;11.31;100.00;101063.06;5027527;28;20349;-76
2024/02/15 09:34:15;;;;;;;61.30;23.88;;;;;;;11.38;100.00;101066.75;5011637;28;20048;-75
2024/02/15 09:36:40;;;;;;;51.33;20.60;;;;;;;11.35;100.00;101066.22;5028304;28;20021;-75
2024/02/15 09:39:06;;;;;;;60.50;21.37;;;;;;;11.40;100.00;101072.78;5010176;28;20350;-75
2024/02/15 09:41:33;;;;;;;57.00;21.50;;;;;;;11.34;100.00;101057.38;5016732;28;20694;-76
2024/02/15 09:44:01;;;;;;;66.50;23.55;;;;;;;11.45;100.00;101058.09;5007863;28;20035;-76
2024/02/15 09:46:26;;;;;;;52.30;21.08;;;;;;;11.48;100.00;101065.81;5028133;28;20056;-76
2024/02/15 09:48:58;;;;;;;50.97;21.30;;;;;;;11.38;100.00;101053.41;5014317;28;20459;-77
2024/02/15 09:51:25;;;;;;;60.72;22.80;;;;;;;11.40;100.00;101070.13;5019015;28;20088;-76
2024/02/15 09:53:51;;;;;;;44.45;17.85;;;;;;;11.45;100.00;101060.75;5012744;28;20056;-76
2024/02/15 09:56:18;;;;;;;55.90;18.80;;;;;;;11.53;100.00;101058.13;5011320;28;20532;-77
2024/02/15 09:58:43;;;;;;;41.33;16.00;;;;;;;11.36;100.00;101058.06;5029618;28;20032;-76
2024/02/15 10:01:12;;;;;;;52.65;19.60;;;;;;;11.59;100.00;101065.53;4993830;28;20030;-77
2024/02/15 10:03:40;;;;;;;46.85;19.52;;;;;;;11.70;100.00;101069.72;4997988;28;20042;-77
2024/02/15 10:06:05;;;;;;;47.55;19.02;;;;;;;11.57;100.00;101051.47;5014670;28;20044;-75
2024/02/15 10:08:31;;;;;;;42.63;16.38;;;;;;;11.63;100.00;101061.50;4996089;28;20026;-76
2024/02/15 10:11:09;;;;;;;45.40;17.40;;;;;;;11.61;100.00;101052.78;5027941;28;20029;-75
2024/02/15 10:13:35;;;;;;;38.10;16.80;;;;;;;11.44;100.00;101045.72;5013750;28;20034;-76
2024/02/15 10:16:15;;;;;;;42.00;18.80;;;;;;;11.76;100.00;101061.06;5011281;28;20504;-76
2024/02/15 10:18:40;;;;;;;42.33;16.55;;;;;;;11.86;100.00;101055.56;5007874;28;20076;-75
2024/02/15 10:21:05;;;;;;;40.77;16.93;;;;;;;11.91;100.00;101050.59;5023615;28;20065;-76
2024/02/15 10:23:31;;;;;;;32.03;13.77;;;;;;;11.79;100.00;101044.66;5027316;28;20059;-75
2024/02/15 10:25:58;;;;;;;40.37;16.10;;;;;;;11.90;100.00;101046.25;5010627;28;20041;-77
2024/02/15 10:28:23;;;;;;;34.42;14.00;;;;;;;11.97;100.00;101044.59;5027064;28;20048;-76
2024/02/15 10:30:50;;;;;;;40.03;16.77;;;;;;;11.99;100.00;101045.28;5027147;28;20029;-77
2024/02/15 10:33:34;;;;;;;35.67;14.35;;;;;;;11.92;100.00;101036.22;5010311;28;20485;-75
2024/02/15 10:36:10;;;;;;;38.28;15.23;;;;;;;11.83;100.00;101046.84;5010327;28;20048;-76
2024/02/15 10:38:36;;;;;;;33.72;15.13;;;;;;;11.94;100.00;101048.44;5027686;28;20384;-77
2024/02/15 10:41:06;;;;;;;34.75;14.70;;;;;;;11.90;100.00;101043.56;5026996;28;20036;-74
2024/02/15 10:43:39;;;;;;;30.10;13.60;;;;;;;11.96;100.00;101045.56;5025731;28;20076;-77
2024/02/15 10:46:07;;;;;;;40.38;16.30;;;;;;;11.98;100.00;101043.56;5018253;28;20030;-77
2024/02/15 10:48:33;;;;;;;38.13;15.95;;;;;;;11.88;100.00;101037.53;5003903;28;20636;-77
2024/02/15 10:51:02;;;;;;;40.00;15.77;;;;;;;11.67;100.00;101036.13;5027934;28;20030;-77
2024/02/15 10:53:30;;;;;;;39.28;16.15;;;;;;;11.82;100.00;101055.03;5027102;28;20046;-75
2024/02/15 10:55:58;;;;;;;38.03;15.63;;;;;;;11.91;100.00;101066.63;5027330;28;20602;-76
2024/02/15 10:58:30;;;;;;;40.67;16.88;;;;;;;11.84;100.00;101066.41;5027852;28;20358;-77
2024/02/15 11:00:58;;;;;;;41.30;16.42;;;;;;;11.91;100.00;101067.47;5027312;28;20485;-77
2024/02/15 11:03:40;;;;;;;35.13;15.48;;;;;;;11.88;100.00;101075.84;5026518;28;20490;-76
2024/02/15 11:06:09;;;;;;;36.33;15.30;;;;;;;11.82;100.00;101066.59;5026717;28;20048;-77
2024/02/15 11:08:35;;;;;;;40.05;16.00;;;;;;;11.95;100.00;101065.31;5028231;28;20033;-77
2024/02/15 11:11:04;;;;;;;39.85;17.23;;;;;;;11.97;100.00;101068.66;5027792;28;20433;-76
2024/02/15 11:13:30;;;;;;;43.40;16.63;;;;;;;12.09;100.00;101070.03;5015463;28;20328;-75